createdAt,value
2024-02-27T00:03:36.362Z,2.91
2024-02-27T00:07:14.610Z,2.89
2024-02-27T00:25:42.010Z,2.78
2024-02-27T00:29:23.041Z,2.66
2024-02-27T00:32:42.136Z,2.51
2024-02-27T00:36:17.485Z,2.48
2024-02-27T00:39:52.690Z,2.45
2024-02-27T00:43:34.509Z,2.41
2024-02-27T00:47:16.633Z,2.40
2024-02-27T01:08:19.948Z,2.30
2024-02-27T01:11:58.176Z,2.23
2024-02-27T01:15:25.249Z,2.22
2024-02-27T01:18:08.271Z,2.20
2024-02-27T01:21:18.811Z,2.21
2024-02-27T01:24:27.362Z,2.22
2024-02-27T01:27:31.288Z,2.20
2024-02-27T01:31:14.361Z,2.12
2024-02-27T01:34:14.507Z,2.08
2024-02-27T01:37:01.012Z,2.05
2024-02-27T01:43:49.337Z,1.96
2024-02-27T01:46:44.524Z,1.91
2024-02-27T01:50:02.680Z,1.85
2024-02-27T01:53:03.628Z,1.84
2024-02-27T01:56:46.493Z,1.81
2024-02-27T01:59:46.486Z,1.78
2024-02-27T02:03:05.571Z,1.77
2024-02-27T02:06:23.503Z,1.77
2024-02-27T02:09:59.986Z,1.77
2024-02-27T02:13:27.040Z,1.75
2024-02-27T02:16:45.344Z,1.76
2024-02-27T02:19:58.555Z,1.74
2024-02-27T02:23:15.118Z,1.74
2024-02-27T02:26:39.798Z,1.73
2024-02-27T02:30:14.810Z,1.73
2024-02-27T02:33:58.434Z,1.73
2024-02-27T02:37:06.901Z,1.74
2024-02-27T02:40:27.209Z,1.74
2024-02-27T02:44:08.698Z,1.74
2024-02-27T02:47:13.983Z,1.72
2024-02-27T02:50:19.566Z,1.73
2024-02-27T02:53:55.541Z,1.70
2024-02-27T02:57:07.307Z,1.70
2024-02-27T03:22:10.454Z,1.55
2024-02-27T03:25:48.744Z,1.44
2024-02-27T03:29:33.499Z,1.41
2024-02-27T03:33:05.825Z,1.38
2024-02-27T03:58:44.420Z,1.39
2024-02-27T04:02:11.657Z,1.34
2024-02-27T04:05:53.690Z,1.34
2024-02-27T04:09:30.997Z,1.35
2024-02-27T04:27:42.427Z,1.36
2024-02-27T04:31:20.902Z,1.28
2024-02-27T04:35:12.056Z,1.24
2024-02-27T04:38:58.379Z,1.21
2024-02-27T04:42:50.081Z,1.19
2024-02-27T05:01:53.175Z,1.17
2024-02-27T05:05:30.514Z,1.13
2024-02-27T05:08:56.477Z,1.13
2024-02-27T05:16:26.652Z,1.16
2024-02-27T05:19:31.130Z,1.13
2024-02-27T05:22:55.849Z,1.13
2024-02-27T05:26:22.227Z,1.13
2024-02-27T05:29:55.395Z,1.10
2024-02-27T05:33:15.248Z,1.12
2024-02-27T05:36:40.351Z,1.17
2024-02-27T05:40:02.365Z,1.26
2024-02-27T05:43:14.783Z,1.25
2024-02-27T05:46:41.899Z,1.31
2024-02-27T05:50:18.207Z,1.34
2024-02-27T05:53:31.984Z,1.39
2024-02-27T05:57:16.874Z,1.45
2024-02-27T06:04:22.588Z,1.60
2024-02-27T06:07:53.873Z,1.69
2024-02-27T06:11:37.126Z,1.76
2024-02-27T06:33:45.418Z,2.71
2024-02-27T06:37:21.026Z,2.81
2024-02-27T06:41:04.205Z,2.96
2024-02-27T06:44:36.748Z,3.13
2024-02-27T07:09:04.843Z,4.74
2024-02-27T07:12:48.748Z,4.82
2024-02-27T07:16:06.025Z,4.94
2024-02-27T07:19:32.209Z,5.15
2024-02-27T07:22:32.769Z,5.44
2024-02-27T07:25:28.954Z,5.70
2024-02-27T07:29:02.901Z,5.94
2024-02-27T07:32:16.077Z,6.21
2024-02-27T07:36:08.128Z,6.50
2024-02-27T07:54:57.507Z,8.35
2024-02-27T07:58:29.271Z,8.65
2024-02-27T08:02:23.547Z,8.96
2024-02-27T08:25:48.859Z,10.99
2024-02-27T08:28:23.898Z,11.26
2024-02-27T08:30:57.594Z,11.47
2024-02-27T08:33:32.669Z,11.70
2024-02-27T08:36:27.896Z,11.93
2024-02-27T08:39:05.221Z,12.15
2024-02-27T08:41:37.697Z,12.35
2024-02-27T08:44:13.731Z,12.52
2024-02-27T08:46:44.708Z,12.66
2024-02-27T08:49:15.702Z,12.75
2024-02-27T08:51:46.581Z,12.88
2024-02-27T08:54:17.497Z,13.05
2024-02-27T08:56:58.290Z,13.24
2024-02-27T08:59:44.933Z,13.43
2024-02-27T09:02:28.659Z,13.65
2024-02-27T09:05:05.299Z,13.91
2024-02-27T09:07:47.512Z,14.18
2024-02-27T09:10:19.212Z,14.47
2024-02-27T09:13:02.148Z,14.73
2024-02-27T09:15:32.421Z,15.04
2024-02-27T09:18:02.798Z,15.35
2024-02-27T09:20:35.743Z,15.64
2024-02-27T09:23:08.158Z,15.94
2024-02-27T09:25:38.610Z,16.18
2024-02-27T09:28:08.917Z,16.40
2024-02-27T09:30:38.647Z,16.65
2024-02-27T09:33:18.423Z,16.89
2024-02-27T09:36:17.288Z,17.10
2024-02-27T09:38:47.285Z,17.25
2024-02-27T09:41:30.283Z,17.28
2024-02-27T09:44:00.529Z,17.40
2024-02-27T09:46:32.466Z,17.56
2024-02-27T09:49:05.413Z,17.68
2024-02-27T09:51:37.176Z,17.79
2024-02-27T09:54:10.605Z,17.98
2024-02-27T09:56:41.085Z,18.13
2024-02-27T09:59:11.183Z,18.23
2024-02-27T10:01:46.679Z,18.44
2024-02-27T10:04:21.203Z,18.67
2024-02-27T10:06:54.138Z,18.81
2024-02-27T10:09:27.795Z,18.97
2024-02-27T10:11:58.044Z,19.18
2024-02-27T10:14:36.120Z,19.28
2024-02-27T10:17:10.291Z,19.24
2024-02-27T10:19:40.702Z,19.29
2024-02-27T10:22:12.196Z,19.41
2024-02-27T10:24:42.461Z,19.56
2024-02-27T10:27:38.402Z,19.67
2024-02-27T10:30:16.861Z,19.71
2024-02-27T10:32:47.108Z,19.88
2024-02-27T10:35:18.729Z,20.02
2024-02-27T10:37:49.106Z,20.19
2024-02-27T10:40:20.442Z,20.37
2024-02-27T10:42:50.106Z,20.50
2024-02-27T10:45:21.141Z,20.54
2024-02-27T10:47:50.955Z,20.60
2024-02-27T10:50:23.062Z,20.73
2024-02-27T10:52:57.887Z,20.80
2024-02-27T10:55:30.825Z,20.96
2024-02-27T10:58:01.863Z,21.14
2024-02-27T11:00:32.744Z,21.17
2024-02-27T11:03:05.801Z,21.24
2024-02-27T11:05:37.297Z,21.29
2024-02-27T11:08:08.906Z,21.26
2024-02-27T11:10:40.512Z,21.33
2024-02-27T11:13:15.078Z,21.35
2024-02-27T11:15:48.190Z,21.39
2024-02-27T11:18:27.171Z,21.36
2024-02-27T11:20:57.788Z,21.36
2024-02-27T11:23:35.732Z,21.40
2024-02-27T11:26:06.409Z,21.36
2024-02-27T11:28:42.489Z,21.42
2024-02-27T11:31:12.755Z,21.48
2024-02-27T11:34:03.346Z,21.55
2024-02-27T11:36:33.506Z,21.52
2024-02-27T11:39:03.196Z,21.54
2024-02-27T11:41:34.319Z,21.56
2024-02-27T11:44:09.245Z,21.64
2024-02-27T11:46:46.559Z,21.66
2024-02-27T11:49:41.769Z,21.68
2024-02-27T11:52:12.312Z,21.80
2024-02-27T11:54:42.748Z,21.80
2024-02-27T11:57:13.952Z,21.73
2024-02-27T11:59:45.808Z,21.77
2024-02-27T12:02:19.645Z,21.86
2024-02-27T12:04:57.112Z,21.89
2024-02-27T12:07:53.382Z,22.00
2024-02-27T12:10:26.791Z,22.10
2024-02-27T12:12:57.675Z,22.13
2024-02-27T12:15:30.912Z,22.13
2024-02-27T12:18:13.518Z,22.07
2024-02-27T12:21:08.618Z,22.05
2024-02-27T12:23:39.269Z,21.92
2024-02-27T12:26:09.630Z,21.89
2024-02-27T12:28:39.707Z,21.93
2024-02-27T12:31:10.032Z,21.98
2024-02-27T12:33:40.670Z,22.15
2024-02-27T12:36:17.089Z,22.10
2024-02-27T12:38:53.339Z,22.18
2024-02-27T12:41:32.705Z,22.24
2024-02-27T12:44:04.938Z,22.21
2024-02-27T12:46:35.109Z,22.03
2024-02-27T12:49:05.516Z,22.10
2024-02-27T12:51:35.687Z,22.16
2024-02-27T12:54:08.755Z,22.11
2024-02-27T12:56:39.338Z,22.02
2024-02-27T12:59:12.466Z,22.03
2024-02-27T13:01:43.146Z,21.89
2024-02-27T13:04:15.388Z,21.88
2024-02-27T13:06:45.867Z,21.86
2024-02-27T13:09:17.141Z,21.82
2024-02-27T13:11:47.239Z,21.75
2024-02-27T13:14:17.256Z,21.66
2024-02-27T13:16:47.363Z,21.51
2024-02-27T13:19:17.850Z,21.43
2024-02-27T13:21:47.779Z,21.51
2024-02-27T13:24:18.000Z,21.55
2024-02-27T13:26:50.066Z,21.56
2024-02-27T13:29:19.785Z,21.53
2024-02-27T13:31:51.026Z,21.38
2024-02-27T13:34:23.953Z,21.37
2024-02-27T13:36:54.520Z,21.34
2024-02-27T13:39:24.481Z,21.20
2024-02-27T13:41:56.436Z,21.15
2024-02-27T13:44:25.939Z,21.12
2024-02-27T13:46:57.355Z,21.11
2024-02-27T13:49:26.961Z,21.04
2024-02-27T13:51:58.037Z,20.94
2024-02-27T13:54:29.235Z,20.83
2024-02-27T13:56:59.236Z,20.71
2024-02-27T13:59:28.841Z,20.47
2024-02-27T14:01:58.874Z,20.33
2024-02-27T14:04:30.425Z,20.31
2024-02-27T14:07:01.033Z,20.32
2024-02-27T14:09:30.689Z,20.20
2024-02-27T14:12:00.914Z,20.10
2024-02-27T14:14:31.055Z,20.06
2024-02-27T14:17:00.513Z,20.03
2024-02-27T14:19:30.465Z,20.03
2024-02-27T14:22:00.585Z,19.97
2024-02-27T14:24:30.622Z,19.89
2024-02-27T14:27:00.600Z,19.89
2024-02-27T14:29:30.457Z,19.82
2024-02-27T14:32:03.019Z,19.69
2024-02-27T14:34:33.488Z,19.60
2024-02-27T14:37:03.922Z,19.56
2024-02-27T14:39:33.754Z,19.58
2024-02-27T14:42:04.083Z,19.54
2024-02-27T14:44:34.128Z,19.44
2024-02-27T14:47:04.231Z,19.36
2024-02-27T14:49:33.241Z,19.32
2024-02-27T14:52:04.137Z,19.15
2024-02-27T14:54:34.600Z,19.06
2024-02-27T14:57:04.729Z,19.00
2024-02-27T14:59:34.675Z,18.84
2024-02-27T15:02:05.429Z,18.75
2024-02-27T15:04:35.250Z,18.68
2024-02-27T15:07:05.579Z,18.59
2024-02-27T15:09:35.985Z,18.49
2024-02-27T15:12:10.324Z,18.36
2024-02-27T15:14:40.421Z,18.25
2024-02-27T15:17:10.096Z,18.18
2024-02-27T15:19:40.554Z,18.13
2024-02-27T15:22:10.849Z,18.06
2024-02-27T15:24:40.486Z,17.97
2024-02-27T15:27:10.110Z,17.89
2024-02-27T15:29:40.180Z,17.77
2024-02-27T15:32:10.481Z,17.68
2024-02-27T15:34:40.233Z,17.53
2024-02-27T15:37:09.911Z,17.39
2024-02-27T15:39:40.050Z,17.25
2024-02-27T15:42:10.478Z,17.12
2024-02-27T15:44:40.912Z,16.89
2024-02-27T15:47:11.116Z,16.61
2024-02-27T15:49:42.431Z,16.40
2024-02-27T15:52:12.885Z,16.29
2024-02-27T15:54:43.186Z,16.17
2024-02-27T15:57:13.237Z,15.99
2024-02-27T15:59:44.245Z,15.86
2024-02-27T16:02:17.628Z,15.66
2024-02-27T16:04:57.983Z,15.50
2024-02-27T16:07:46.368Z,15.35
2024-02-27T16:10:20.481Z,15.14
2024-02-27T16:12:50.821Z,14.98
2024-02-27T16:15:20.999Z,14.82
2024-02-27T16:18:25.224Z,14.59
2024-02-27T16:20:55.281Z,14.38
2024-02-27T16:23:27.139Z,14.19
2024-02-27T16:25:58.130Z,13.90
2024-02-27T16:28:28.410Z,13.73
2024-02-27T16:30:59.091Z,13.63
2024-02-27T16:33:31.771Z,13.58
2024-02-27T16:36:03.621Z,13.52
2024-02-27T16:38:34.631Z,13.39
2024-02-27T16:41:14.617Z,13.24
2024-02-27T16:43:51.349Z,13.12
2024-02-27T16:46:27.454Z,13.01
2024-02-27T16:49:04.244Z,12.90
2024-02-27T16:51:34.855Z,12.73
2024-02-27T16:54:07.824Z,12.48
2024-02-27T16:57:20.354Z,12.29
2024-02-27T16:59:54.306Z,12.09
2024-02-27T17:02:24.504Z,11.93
2024-02-27T17:04:57.688Z,11.80
2024-02-27T17:07:28.437Z,11.64
2024-02-27T17:10:01.422Z,11.47
2024-02-27T17:12:36.940Z,11.32
2024-02-27T17:15:20.272Z,11.22
2024-02-27T17:17:53.126Z,11.07
2024-02-27T17:20:26.426Z,10.95
2024-02-27T17:23:20.302Z,10.77
2024-02-27T17:26:05.119Z,10.55
2024-02-27T17:28:38.466Z,10.42
2024-02-27T17:31:40.407Z,10.32
2024-02-27T17:34:20.582Z,10.11
2024-02-27T17:37:14.783Z,9.91
2024-02-27T17:40:17.994Z,9.76
2024-02-27T17:43:32.371Z,9.60
2024-02-27T17:46:11.825Z,9.43
2024-02-27T17:48:42.347Z,9.34
2024-02-27T17:51:35.411Z,9.25
2024-02-27T17:54:29.568Z,9.17
2024-02-27T17:57:21.932Z,9.05
2024-02-27T18:00:03.427Z,8.93
2024-02-27T18:02:33.600Z,8.85
2024-02-27T18:05:13.129Z,8.79
2024-02-27T18:07:56.316Z,8.71
2024-02-27T18:10:27.749Z,8.58
2024-02-27T18:12:58.333Z,8.47
2024-02-27T18:15:48.992Z,8.37
2024-02-27T18:18:28.867Z,8.27
2024-02-27T18:21:52.765Z,8.16
2024-02-27T18:24:42.500Z,7.97
2024-02-27T18:27:35.684Z,7.85
2024-02-27T18:30:12.675Z,7.69
2024-02-27T18:33:14.239Z,7.62
2024-02-27T18:36:10.565Z,7.54
2024-02-27T18:38:50.751Z,7.47
2024-02-27T18:41:37.567Z,7.36
2024-02-27T18:45:06.120Z,7.29
2024-02-27T18:48:00.343Z,7.15
2024-02-27T18:50:56.736Z,7.02
2024-02-27T18:53:58.481Z,6.97
2024-02-27T18:56:59.436Z,6.89
2024-02-27T19:00:22.622Z,6.78
2024-02-27T19:03:02.892Z,6.67
2024-02-27T19:05:58.797Z,6.59
2024-02-27T19:08:33.561Z,6.53
2024-02-27T19:11:11.836Z,6.47
2024-02-27T19:13:48.569Z,6.42
2024-02-27T19:17:18.304Z,6.33
2024-02-27T19:19:51.280Z,6.20
2024-02-27T19:22:54.036Z,6.15
2024-02-27T19:25:37.771Z,6.14
2024-02-27T19:28:42.415Z,6.07
2024-02-27T19:32:27.879Z,5.98
2024-02-27T19:35:33.221Z,5.87
2024-02-27T19:38:54.779Z,5.81
2024-02-27T19:42:21.453Z,5.74
2024-02-27T19:45:01.192Z,5.66
2024-02-27T19:48:15.225Z,5.61
2024-02-27T19:51:14.563Z,5.54
2024-02-27T19:54:32.929Z,5.44
2024-02-27T19:58:26.008Z,5.38
2024-02-27T20:01:56.398Z,5.34
2024-02-27T20:05:31.714Z,5.27
2024-02-27T20:08:31.526Z,5.20
2024-02-27T20:12:02.835Z,5.18
2024-02-27T20:15:08.149Z,5.09
2024-02-27T20:18:59.311Z,5.07
2024-02-27T20:22:45.260Z,4.99
2024-02-27T20:26:37.753Z,4.92
2024-02-27T20:30:22.213Z,4.82
2024-02-27T20:34:07.426Z,4.71
2024-02-27T20:56:27.056Z,4.32
2024-02-27T20:59:59.524Z,4.27
2024-02-27T21:02:48.584Z,4.25
2024-02-27T21:06:00.275Z,4.21
2024-02-27T21:09:02.666Z,4.13
2024-02-27T21:12:38.918Z,4.09
2024-02-27T21:16:20.658Z,4.06
2024-02-27T21:20:12.260Z,4.06
2024-02-27T21:23:42.960Z,4.09
2024-02-27T21:27:14.686Z,4.07
2024-02-27T21:30:34.683Z,4.00
2024-02-27T21:34:11.555Z,3.95
2024-02-27T21:40:47.302Z,3.87
2024-02-27T21:44:06.045Z,3.83
2024-02-27T21:47:27.598Z,3.86
2024-02-27T21:50:57.450Z,3.83
2024-02-27T21:57:59.481Z,3.67
2024-02-27T22:00:48.196Z,3.65
2024-02-27T22:03:54.790Z,3.65
2024-02-27T22:07:18.664Z,3.65
2024-02-27T22:10:10.490Z,3.63
2024-02-27T22:13:36.791Z,3.62
2024-02-27T22:16:58.109Z,3.60
2024-02-27T22:20:41.376Z,3.54
2024-02-27T22:24:05.465Z,3.48
2024-02-27T22:55:49.113Z,3.25
2024-02-27T22:59:04.262Z,3.24
2024-02-27T23:02:32.294Z,3.21
2024-02-27T23:06:14.971Z,3.18
2024-02-27T23:09:57.368Z,3.08
2024-02-27T23:13:50.480Z,3.00
2024-02-27T23:20:41.378Z,2.94
